Time;durP1;ratioP1;P1;durP2;ratioP2;P2;SDS_P1;SDS_P2;PMS_P1;PMS_P2;Temp;Humidity;BMP_temperature;BMP_pressure;BME280_temperature;BME280_humidity;BME280_pressure;Samples;Min_cycle;Max_cycle;Signal;HPM_P1;HPM_P2
2021/08/11 00:01:07;;;;;;;3.90;3.50;;;20.00;1.00;;;;;;5076238;28;20207;-61
2021/08/11 00:03:33;;;;;;;3.13;2.83;;;19.90;1.00;;;;;;5073330;28;20198;-60
2021/08/11 00:05:58;;;;;;;7.97;3.10;;;19.90;1.00;;;;;;5088103;28;20269;-60
2021/08/11 00:08:24;;;;;;;3.97;3.10;;;19.90;1.00;;;;;;5081147;28;20584;-60
2021/08/11 00:10:49;;;;;;;4.10;2.83;;;19.90;1.00;;;;;;5070958;28;20233;-60
2021/08/11 00:13:15;;;;;;;6.67;3.33;;;19.90;1.00;;;;;;5076194;28;20179;-59
2021/08/11 00:15:40;;;;;;;4.80;3.13;;;19.90;1.00;;;;;;5071608;28;20215;-59
2021/08/11 00:18:06;;;;;;;4.10;3.37;;;19.80;1.00;;;;;;5079435;28;20214;-59
2021/08/11 00:20:32;;;;;;;4.87;3.30;;;19.80;1.00;;;;;;5091180;28;20277;-60
2021/08/11 00:22:57;;;;;;;6.53;3.30;;;19.80;1.00;;;;;;5090912;28;20179;-59
2021/08/11 00:25:23;;;;;;;5.57;3.60;;;19.70;1.00;;;;;;5091399;28;20187;-60
2021/08/11 00:27:49;;;;;;;4.83;3.23;;;19.60;1.00;;;;;;5090641;28;20671;-59
2021/08/11 00:30:15;;;;;;;3.93;3.00;;;19.60;1.00;;;;;;5089702;28;20444;-59
2021/08/11 00:32:40;;;;;;;3.43;2.80;;;19.60;1.00;;;;;;5088776;28;20183;-60
2021/08/11 00:35:06;;;;;;;3.80;3.40;;;19.60;1.00;;;;;;5077492;28;20232;-60
2021/08/11 00:37:32;;;;;;;4.07;3.17;;;19.70;1.00;;;;;;5079221;28;20537;-60
2021/08/11 00:39:59;;;;;;;4.30;3.33;;;19.60;1.00;;;;;;5085592;28;20452;-60
2021/08/11 00:42:27;;;;;;;4.30;3.00;;;19.70;1.00;;;;;;5077514;28;20193;-59
2021/08/11 00:44:53;;;;;;;3.80;3.27;;;19.60;1.00;;;;;;5074656;28;20471;-59
2021/08/11 00:47:21;;;;;;;4.53;3.33;;;19.50;1.00;;;;;;5077024;28;20495;-59
2021/08/11 00:49:46;;;;;;;6.57;3.30;;;19.20;1.00;;;;;;5095026;28;20517;-59
2021/08/11 00:52:12;;;;;;;3.80;3.00;;;19.40;1.00;;;;;;5094509;28;20440;-59
2021/08/11 00:54:39;;;;;;;3.40;3.00;;;19.30;1.00;;;;;;5093790;28;20546;-61
2021/08/11 00:57:05;;;;;;;4.97;3.00;;;19.40;1.00;;;;;;5094728;28;20555;-59
2021/08/11 00:59:36;;;;;;;7.20;3.10;;;19.50;1.00;;;;;;5086581;28;20449;-59
2021/08/11 01:02:03;;;;;;;3.33;3.03;;;19.50;1.00;;;;;;5094737;28;20741;-60
2021/08/11 01:04:29;;;;;;;3.53;2.90;;;19.40;1.00;;;;;;5089415;28;20513;-60
2021/08/11 01:06:55;;;;;;;4.13;3.20;;;19.40;1.00;;;;;;5092391;28;20474;-60
2021/08/11 01:09:22;;;;;;;5.07;3.13;;;19.40;1.00;;;;;;5094435;28;20468;-59
2021/08/11 01:11:49;;;;;;;3.87;3.13;;;19.40;1.00;;;;;;5092907;28;20909;-60
2021/08/11 01:14:15;;;;;;;3.47;3.17;;;19.30;1.00;;;;;;5094419;28;20782;-59
2021/08/11 01:16:42;;;;;;;6.13;3.27;;;19.30;1.00;;;;;;5085871;28;20843;-60
2021/08/11 01:19:08;;;;;;;4.00;3.23;;;19.30;1.00;;;;;;5090802;28;20634;-59
2021/08/11 01:21:50;;;;;;;3.53;2.93;;;19.30;1.00;;;;;;5094517;28;20440;-61
2021/08/11 01:24:35;;;;;;;3.47;3.17;;;19.30;1.00;;;;;;5089569;28;20183;-61
2021/08/11 01:27:38;;;;;;;3.43;2.60;;;19.30;1.00;;;;;;5086325;28;21087;-60
2021/08/11 01:30:16;;;;;;;5.03;3.33;;;19.40;1.00;;;;;;5079049;28;20968;-59
2021/08/11 01:33:20;;;;;;;3.97;3.40;;;19.40;1.00;;;;;;5078111;28;20461;-59
2021/08/11 01:36:01;;;;;;;5.23;2.90;;;19.50;1.00;;;;;;5084039;28;20530;-59
2021/08/11 01:38:32;;;;;;;5.63;3.50;;;19.50;1.00;;;;;;5077659;28;21453;-59
2021/08/11 01:41:01;;;;;;;4.47;3.30;;;19.40;1.00;;;;;;5093512;28;20443;-59
2021/08/11 01:43:33;;;;;;;3.57;2.60;;;19.40;1.00;;;;;;5082507;28;20451;-59
2021/08/11 01:45:59;;;;;;;3.80;3.10;;;19.20;1.00;;;;;;5080089;28;20929;-59
2021/08/11 01:48:27;;;;;;;3.37;3.07;;;19.10;1.00;;;;;;5092685;28;21087;-59
2021/08/11 01:50:54;;;;;;;3.60;2.87;;;18.90;1.00;;;;;;5092700;28;20587;-60
2021/08/11 01:53:23;;;;;;;3.93;3.03;;;19.00;1.00;;;;;;5079574;28;20445;-60
2021/08/11 01:55:50;;;;;;;3.50;2.70;;;19.00;1.00;;;;;;5081459;28;20434;-59
2021/08/11 01:58:19;;;;;;;4.10;3.73;;;18.90;1.00;;;;;;5076193;28;20827;-59
2021/08/11 02:00:47;;;;;;;4.80;3.50;;;19.00;1.00;;;;;;5086906;28;22205;-58
2021/08/11 02:03:13;;;;;;;3.90;3.50;;;19.00;1.00;;;;;;5085070;28;20990;-59
2021/08/11 02:05:38;;;;;;;6.20;3.73;;;19.10;1.00;;;;;;5091715;28;20444;-61
2021/08/11 02:08:04;;;;;;;5.40;3.87;;;19.00;1.00;;;;;;5083640;28;20234;-60
2021/08/11 02:10:30;;;;;;;4.53;3.30;;;19.00;1.00;;;;;;5087352;28;20178;-60
2021/08/11 02:12:56;;;;;;;6.53;3.97;;;19.00;1.00;;;;;;5077428;28;20448;-59
2021/08/11 02:15:21;;;;;;;4.30;3.17;;;19.00;1.00;;;;;;5080737;28;20219;-59
2021/08/11 02:17:48;;;;;;;4.03;2.90;;;;;;;;;;5089638;28;20202;-60
2021/08/11 02:20:15;;;;;;;4.50;3.87;;;18.80;1.00;;;;;;5092815;28;20682;-59
2021/08/11 02:22:40;;;;;;;5.00;3.27;;;18.70;1.00;;;;;;5086025;28;20799;-60
2021/08/11 02:25:09;;;;;;;3.80;3.30;;;18.80;1.00;;;;;;5077513;28;20441;-59
2021/08/11 02:27:47;;;;;;;3.47;3.17;;;18.80;1.00;;;;;;5088731;28;20654;-59
2021/08/11 02:30:14;;;;;;;4.00;3.17;;;18.80;1.00;;;;;;5081033;28;20437;-60
2021/08/11 02:32:50;;;;;;;4.07;3.67;;;18.80;1.00;;;;;;5089850;28;20432;-59
2021/08/11 02:35:24;;;;;;;4.43;3.37;;;18.70;1.00;;;;;;5085809;28;20474;-59
2021/08/11 02:38:04;;;;;;;4.70;3.37;;;18.70;1.00;;;;;;5082713;28;20469;-59
2021/08/11 02:41:00;;;;;;;4.43;3.47;;;18.70;1.00;;;;;;5088470;28;20438;-60
2021/08/11 02:43:37;;;;;;;4.70;3.00;;;18.70;1.00;;;;;;5076010;28;20455;-59
2021/08/11 02:46:08;;;;;;;3.90;3.10;;;18.60;1.00;;;;;;5086299;28;20447;-60
2021/08/11 02:48:34;;;;;;;3.13;2.83;;;18.50;1.00;;;;;;5088134;28;20456;-58
2021/08/11 02:51:03;;;;;;;5.80;3.93;;;18.50;1.00;;;;;;5076948;28;20525;-60
2021/08/11 02:53:30;;;;;;;4.83;2.80;;;18.60;1.00;;;;;;5084849;28;20925;-60
2021/08/11 02:55:56;;;;;;;4.70;3.97;;;18.50;1.00;;;;;;5080840;28;20439;-59
2021/08/11 02:58:22;;;;;;;3.80;3.50;;;18.50;1.00;;;;;;5087118;28;20445;-60
2021/08/11 03:00:49;;;;;;;4.10;3.10;;;18.50;1.00;;;;;;5081873;28;20194;-60
2021/08/11 03:03:17;;;;;;;5.00;3.93;;;18.60;1.00;;;;;;5080949;28;20174;-59
2021/08/11 03:05:43;;;;;;;3.70;3.40;;;18.60;1.00;;;;;;5080922;28;20592;-60
2021/08/11 03:08:09;;;;;;;4.57;3.60;;;18.50;1.00;;;;;;5087314;28;20468;-59
2021/08/11 03:10:38;;;;;;;3.93;3.47;;;18.50;1.00;;;;;;5084937;28;20431;-59
2021/08/11 03:13:04;;;;;;;4.20;2.83;;;18.40;1.00;;;;;;5076703;28;21337;-59
2021/08/11 03:15:31;;;;;;;5.00;3.47;;;18.40;1.00;;;;;;5091299;28;20433;-59
2021/08/11 03:17:57;;;;;;;3.73;3.00;;;18.30;1.00;;;;;;5075174;28;20933;-59
2021/08/11 03:20:23;;;;;;;3.67;3.37;;;18.40;1.00;;;;;;5085233;28;20510;-59
2021/08/11 03:22:48;;;;;;;3.50;3.20;;;18.10;1.00;;;;;;5076139;28;20240;-58
2021/08/11 03:25:14;;;;;;;6.27;4.20;;;18.10;1.00;;;;;;5076706;28;20229;-59
2021/08/11 03:27:39;;;;;;;3.97;3.57;;;18.20;1.00;;;;;;5082347;28;20209;-59
2021/08/11 03:30:06;;;;;;;3.87;3.47;;;18.10;1.00;;;;;;5079721;28;20187;-59
2021/08/11 03:32:31;;;;;;;4.33;3.50;;;18.00;1.00;;;;;;5086175;28;20175;-59
2021/08/11 03:34:57;;;;;;;6.50;3.43;;;18.00;1.00;;;;;;5083887;28;20502;-60
2021/08/11 03:37:23;;;;;;;4.17;3.40;;;17.90;1.00;;;;;;5090165;28;20195;-59
2021/08/11 03:39:48;;;;;;;5.80;4.13;;;17.90;1.00;;;;;;5082526;28;20191;-60
2021/08/11 03:42:14;;;;;;;4.03;3.63;;;18.00;1.00;;;;;;5089695;28;20445;-59
2021/08/11 03:44:40;;;;;;;5.33;3.63;;;18.00;1.00;;;;;;5076552;28;20183;-60
2021/08/11 03:47:06;;;;;;;5.20;3.57;;;17.90;1.00;;;;;;5079177;28;20299;-59
2021/08/11 03:49:31;;;;;;;4.30;3.90;;;17.80;1.00;;;;;;5086567;28;20250;-59
2021/08/11 03:51:57;;;;;;;3.63;3.33;;;17.80;1.00;;;;;;5090753;28;20166;-59
2021/08/11 03:54:22;;;;;;;6.97;3.70;;;17.70;1.00;;;;;;5073687;28;20190;-59
2021/08/11 03:56:48;;;;;;;3.93;3.30;;;17.70;1.00;;;;;;5082995;28;20549;-60
2021/08/11 03:59:14;;;;;;;4.43;3.90;;;17.70;1.00;;;;;;5075656;28;20195;-59
2021/08/11 04:01:39;;;;;;;5.50;3.70;;;17.70;1.00;;;;;;5076992;28;20759;-58
2021/08/11 04:04:05;;;;;;;4.50;4.10;;;17.80;1.00;;;;;;5081310;28;20229;-59
2021/08/11 04:06:31;;;;;;;5.20;3.73;;;17.80;1.00;;;;;;5086488;28;20178;-59
2021/08/11 04:08:56;;;;;;;5.87;3.63;;;17.80;1.00;;;;;;5088173;28;20243;-59
2021/08/11 04:11:22;;;;;;;5.30;4.00;;;17.90;1.00;;;;;;5074816;28;20633;-58
2021/08/11 04:13:47;;;;;;;6.13;4.40;;;17.90;1.00;;;;;;5086780;28;20284;-60
2021/08/11 04:16:13;;;;;;;6.43;3.80;;;17.90;1.00;;;;;;5072507;28;20215;-59
2021/08/11 04:18:38;;;;;;;5.07;3.40;;;17.80;1.00;;;;;;5090301;28;20582;-58
2021/08/11 04:21:04;;;;;;;4.50;4.03;;;17.80;1.00;;;;;;5090678;28;20178;-59
2021/08/11 04:23:29;;;;;;;5.93;4.10;;;17.80;1.00;;;;;;5087965;28;20189;-60
2021/08/11 04:25:55;;;;;;;4.77;4.00;;;17.70;1.00;;;;;;5075006;28;20532;-60
2021/08/11 04:28:21;;;;;;;4.20;3.73;;;17.90;1.00;;;;;;5078330;28;20203;-61
2021/08/11 04:30:47;;;;;;;4.67;4.20;;;17.90;1.00;;;;;;5079804;28;20195;-59
2021/08/11 04:33:13;;;;;;;8.50;3.50;;;17.90;1.00;;;;;;5086779;28;20448;-58
2021/08/11 04:35:39;;;;;;;6.03;3.80;;;17.90;1.00;;;;;;5084558;28;21096;-60
2021/08/11 04:38:06;;;;;;;4.43;3.83;;;17.90;1.00;;;;;;5075917;28;20460;-59
2021/08/11 04:40:33;;;;;;;6.40;4.07;;;17.90;1.00;;;;;;5084519;28;20490;-59
2021/08/11 04:42:59;;;;;;;6.10;4.23;;;17.90;1.00;;;;;;5081130;28;20808;-59
2021/08/11 04:45:24;;;;;;;5.73;4.20;;;18.00;1.00;;;;;;5085638;28;20459;-59
2021/08/11 04:47:50;;;;;;;4.53;3.80;;;18.10;1.00;;;;;;5081256;28;20663;-59
2021/08/11 04:50:15;;;;;;;6.10;3.80;;;18.10;1.00;;;;;;5086684;28;20195;-59
2021/08/11 04:52:41;;;;;;;4.60;4.20;;;18.10;1.00;;;;;;5079660;28;20183;-60
2021/08/11 04:55:07;;;;;;;5.70;4.40;;;18.20;1.00;;;;;;5083227;28;20232;-59
2021/08/11 04:57:33;;;;;;;4.90;3.93;;;18.20;1.00;;;;;;5073608;28;20207;-59
2021/08/11 04:59:58;;;;;;;8.60;4.60;;;18.30;1.00;;;;;;5080796;28;20444;-59
2021/08/11 05:02:24;;;;;;;6.80;4.50;;;18.40;1.00;;;;;;5073969;28;20528;-58
2021/08/11 05:04:49;;;;;;;5.30;4.63;;;18.50;1.00;;;;;;5078499;28;20691;-60
2021/08/11 05:07:15;;;;;;;5.70;3.70;;;18.60;1.00;;;;;;5072742;28;20196;-59
2021/08/11 05:09:41;;;;;;;5.27;4.77;;;18.70;1.00;;;;;;5084013;28;20195;-57
2021/08/11 05:12:07;;;;;;;6.30;4.80;;;18.80;1.00;;;;;;5081047;28;20616;-60
2021/08/11 05:14:34;;;;;;;5.63;4.13;;;18.90;1.00;;;;;;5076256;28;20445;-59
2021/08/11 05:17:00;;;;;;;4.57;4.17;;;18.90;1.00;;;;;;5084544;28;20587;-57
2021/08/11 05:19:25;;;;;;;5.90;4.40;;;19.10;1.00;;;;;;5078815;28;20497;-59
2021/08/11 05:21:51;;;;;;;5.10;4.60;;;19.10;1.00;;;;;;5082110;28;20533;-59
2021/08/11 05:24:17;;;;;;;7.13;4.50;;;19.00;1.00;;;;;;5072462;28;20199;-58
2021/08/11 05:26:45;;;;;;;4.67;4.03;;;18.90;1.00;;;;;;5083636;28;20324;-58
2021/08/11 05:29:18;;;;;;;7.10;4.90;;;19.00;1.00;;;;;;5082901;28;20459;-59
2021/08/11 05:31:44;;;;;;;6.73;5.07;;;19.00;1.00;;;;;;5087708;28;20516;-58
2021/08/11 05:34:09;;;;;;;6.40;3.97;;;19.10;1.00;;;;;;5079543;28;20533;-58
2021/08/11 05:36:35;;;;;;;4.87;4.37;;;19.20;1.00;;;;;;5079859;28;20660;-60
2021/08/11 05:39:00;;;;;;;5.27;4.30;;;19.40;1.00;;;;;;5090643;28;20175;-58
2021/08/11 05:41:26;;;;;;;6.33;3.93;;;19.50;1.00;;;;;;5073771;28;20172;-59
2021/08/11 05:43:51;;;;;;;9.40;4.43;;;19.60;1.00;;;;;;5089953;28;20186;-58
2021/08/11 05:46:17;;;;;;;5.70;4.10;;;19.70;1.00;;;;;;5081062;28;20258;-58
2021/08/11 05:48:43;;;;;;;7.77;6.40;;;19.80;1.00;;;;;;5090459;28;20186;-59
2021/08/11 05:51:08;;;;;;;4.50;4.10;;;19.90;1.00;;;;;;5088928;28;20193;-59
2021/08/11 05:53:34;;;;;;;5.20;4.10;;;19.90;1.00;;;;;;5086816;28;20220;-58
2021/08/11 05:55:59;;;;;;;5.90;4.50;;;20.00;1.00;;;;;;5085774;28;20182;-57
2021/08/11 05:58:25;;;;;;;4.33;3.63;;;20.20;1.00;;;;;;5088502;28;20437;-59
2021/08/11 06:00:50;;;;;;;4.23;3.60;;;20.20;1.00;;;;;;5087031;28;20193;-58
2021/08/11 06:03:16;;;;;;;4.10;3.70;;;20.40;1.00;;;;;;5087128;28;20183;-59
2021/08/11 06:05:41;;;;;;;3.93;3.53;;;20.40;1.00;;;;;;5074969;28;20194;-59
2021/08/11 06:08:07;;;;;;;4.37;3.70;;;20.50;1.00;;;;;;5092551;28;20267;-59
2021/08/11 06:10:33;;;;;;;3.90;3.23;;;20.50;1.00;;;;;;5087727;28;20209;-58
2021/08/11 06:12:58;;;;;;;4.70;3.80;;;20.50;1.00;;;;;;5083631;28;20179;-58
2021/08/11 06:15:24;;;;;;;4.40;4.00;;;20.50;1.00;;;;;;5079099;28;21030;-58
2021/08/11 06:17:50;;;;;;;4.10;3.40;;;20.60;1.00;;;;;;5091258;28;20541;-58
2021/08/11 06:20:18;;;;;;;5.33;3.47;;;20.80;1.00;;;;;;5080939;28;20187;-59
2021/08/11 06:22:45;;;;;;;5.37;3.00;;;20.90;1.00;;;;;;5082495;28;20529;-58
2021/08/11 06:25:11;;;;;;;4.53;2.70;;;21.10;1.00;;;;;;5092384;28;20448;-57
2021/08/11 06:27:37;;;;;;;3.40;2.73;;;21.20;1.00;;;;;;5087488;28;20468;-58
2021/08/11 06:30:04;;;;;;;6.57;3.07;;;21.30;1.00;;;;;;5085641;28;20436;-59
2021/08/11 06:32:30;;;;;;;5.27;3.30;;;21.40;1.00;;;;;;5088475;28;20233;-59
2021/08/11 06:34:55;;;;;;;4.17;3.20;;;21.40;1.00;;;;;;5079330;28;20941;-57
2021/08/11 06:37:21;;;;;;;3.20;2.90;;;21.30;1.00;;;;;;5086502;28;20217;-59
2021/08/11 06:39:46;;;;;;;7.00;3.00;;;21.30;1.00;;;;;;5079835;28;20715;-58
2021/08/11 06:42:12;;;;;;;5.37;3.20;;;21.20;1.00;;;;;;5076867;28;20211;-59
2021/08/11 06:44:37;;;;;;;6.20;3.37;;;21.30;1.00;;;;;;5074383;28;20699;-59
2021/08/11 06:47:03;;;;;;;6.03;3.60;;;21.30;1.00;;;;;;5075148;28;20540;-59
2021/08/11 06:49:28;;;;;;;3.43;3.13;;;21.60;1.00;;;;;;5078437;28;20175;-57
2021/08/11 06:51:54;;;;;;;4.07;3.00;;;21.60;1.00;;;;;;5074295;28;20651;-57
2021/08/11 06:54:20;;;;;;;4.13;3.07;;;21.60;1.00;;;;;;5075269;28;20667;-57
2021/08/11 06:56:45;;;;;;;7.00;3.07;;;21.70;1.00;;;;;;5089330;28;20181;-59
2021/08/11 06:59:11;;;;;;;6.93;2.97;;;24.40;1.00;;;;;;5076668;28;20171;-59
2021/08/11 07:01:36;;;;;;;3.63;3.20;;;21.90;1.00;;;;;;5081968;28;20273;-59
2021/08/11 07:04:02;;;;;;;3.40;3.07;;;21.80;1.00;;;;;;5082671;28;20210;-58
2021/08/11 07:06:27;;;;;;;7.47;3.17;;;22.10;1.00;;;;;;5076029;28;20236;-58
2021/08/11 07:08:53;;;;;;;12.73;4.93;;;22.30;1.00;;;;;;5081967;28;20266;-59
2021/08/11 07:11:19;;;;;;;3.40;3.00;;;22.50;1.00;;;;;;5078553;28;20621;-58
2021/08/11 07:13:44;;;;;;;4.20;3.37;;;22.60;1.00;;;;;;5089183;28;20194;-58
2021/08/11 07:16:10;;;;;;;5.20;3.47;;;22.80;1.00;;;;;;5082559;28;20548;-58
2021/08/11 07:18:36;;;;;;;2.80;2.23;;;23.30;1.00;;;;;;5080648;28;20248;-58
2021/08/11 07:21:01;;;;;;;3.50;3.03;;;23.50;1.00;;;;;;5073622;28;20189;-57
2021/08/11 07:23:27;;;;;;;5.00;2.63;;;23.60;1.00;;;;;;5073599;28;20218;-59
2021/08/11 07:25:52;;;;;;;3.37;2.80;;;23.50;1.00;;;;;;5083818;28;20190;-59
2021/08/11 07:28:18;;;;;;;3.63;3.07;;;23.50;1.00;;;;;;5088007;28;20199;-60
2021/08/11 07:30:45;;;;;;;3.60;3.30;;;23.50;1.00;;;;;;5087338;28;20183;-59
2021/08/11 07:33:11;;;;;;;3.50;3.20;;;23.20;1.00;;;;;;5073664;28;20262;-59
2021/08/11 07:35:38;;;;;;;3.70;3.40;;;23.40;1.00;;;;;;5074187;28;20942;-60
2021/08/11 07:38:04;;;;;;;4.77;3.13;;;23.60;1.00;;;;;;5083588;28;20445;-60
2021/08/11 07:40:30;;;;;;;4.50;3.90;;;23.40;1.00;;;;;;5079034;28;20926;-61
2021/08/11 07:42:57;;;;;;;5.07;3.57;;;23.30;1.00;;;;;;5073511;28;20528;-59
2021/08/11 07:45:23;;;;;;;3.93;2.90;;;23.40;1.00;;;;;;5089701;28;20440;-59
2021/08/11 07:47:53;;;;;;;3.77;3.40;;;23.70;1.00;;;;;;5080666;28;20493;-59
2021/08/11 07:50:20;;;;;;;3.20;2.90;;;23.90;1.00;;;;;;5077405;28;20441;-60
2021/08/11 07:52:46;;;;;;;5.20;3.30;;;23.90;1.00;;;;;;5088136;28;20925;-58
2021/08/11 07:55:13;;;;;;;4.53;2.90;;;23.90;1.00;;;;;;5084727;28;20432;-59
2021/08/11 07:57:38;;;;;;;3.40;3.10;;;23.70;1.00;;;;;;5077149;28;20457;-59
2021/08/11 08:00:06;;;;;;;4.10;3.70;;;23.60;1.00;;;;;;5081736;28;20449;-58
2021/08/11 08:02:32;;;;;;;5.00;2.90;;;23.60;1.00;;;;;;5070738;28;20569;-60
2021/08/11 08:04:57;;;;;;;3.70;3.03;;;23.70;1.00;;;;;;5072358;28;20437;-59
2021/08/11 08:07:23;;;;;;;3.53;3.10;;;24.00;1.00;;;;;;5086635;28;20194;-58
2021/08/11 08:09:48;;;;;;;3.70;2.87;;;24.10;1.00;;;;;;5090642;28;20182;-59
2021/08/11 08:12:14;;;;;;;2.97;2.67;;;24.30;1.00;;;;;;5090057;28;20188;-58
2021/08/11 08:14:39;;;;;;;4.10;3.70;;;24.20;1.00;;;;;;5090017;28;20185;-60
2021/08/11 08:17:05;;;;;;;4.43;3.40;;;24.30;1.00;;;;;;5086876;28;20311;-58
2021/08/11 08:19:32;;;;;;;3.40;3.00;;;24.50;1.00;;;;;;5075448;28;20580;-60
2021/08/11 08:21:57;;;;;;;3.87;3.27;;;24.70;1.00;;;;;;5074436;28;20440;-60
2021/08/11 08:24:23;;;;;;;3.83;3.20;;;24.50;1.00;;;;;;5078096;28;20202;-61
2021/08/11 08:26:48;;;;;;;3.30;3.00;;;24.40;1.00;;;;;;5088625;28;20214;-60
2021/08/11 08:29:14;;;;;;;5.57;3.33;;;24.50;1.00;;;;;;5082727;28;20652;-59
2021/08/11 08:31:40;;;;;;;3.97;3.67;;;24.50;1.00;;;;;;5075222;28;20195;-60
2021/08/11 08:34:05;;;;;;;4.47;3.33;;;24.50;1.00;;;;;;5077023;28;20183;-61
2021/08/11 08:36:31;;;;;;;5.50;3.70;;;24.70;1.00;;;;;;5090295;28;20178;-59
2021/08/11 08:38:57;;;;;;;5.20;3.17;;;24.70;1.00;;;;;;5074850;28;20175;-60
2021/08/11 08:41:22;;;;;;;3.57;3.27;;;24.40;1.00;;;;;;5081888;28;20182;-60
2021/08/11 08:43:48;;;;;;;3.07;2.80;;;24.10;1.00;;;;;;5078640;28;20455;-59
2021/08/11 08:46:18;;;;;;;3.50;3.20;;;24.10;1.00;;;;;;5086477;28;20258;-60
2021/08/11 08:48:44;;;;;;;3.97;3.57;;;23.90;1.00;;;;;;5088885;28;20202;-61
2021/08/11 08:51:11;;;;;;;4.43;3.37;;;24.10;1.00;;;;;;5082077;28;21059;-60
2021/08/11 08:53:38;;;;;;;4.67;3.30;;;24.20;1.00;;;;;;5090004;28;20171;-59
2021/08/11 08:56:04;;;;;;;5.33;3.70;;;24.30;1.00;;;;;;5090600;28;20432;-60
2021/08/11 08:58:30;;;;;;;6.23;3.87;;;24.50;1.00;;;;;;5090407;28;20559;-60
2021/08/11 09:00:56;;;;;;;4.00;3.37;;;24.50;1.00;;;;;;5090898;28;20530;-61
2021/08/11 09:03:21;;;;;;;4.30;3.90;;;24.40;1.00;;;;;;5094318;28;20186;-60
2021/08/11 09:05:48;;;;;;;5.17;4.60;;;24.40;1.00;;;;;;5081157;28;20237;-61
2021/08/11 09:08:14;;;;;;;5.13;4.20;;;24.20;1.00;;;;;;5074035;28;20211;-60
2021/08/11 09:10:40;;;;;;;3.80;3.50;;;24.30;1.00;;;;;;5083673;28;20432;-61
2021/08/11 09:13:19;;;;;;;4.40;4.00;;;24.70;1.00;;;;;;5087722;28;20179;-59
2021/08/11 09:15:47;;;;;;;5.00;4.10;;;25.00;1.00;;;;;;5083236;28;20459;-60
2021/08/11 09:18:16;;;;;;;4.60;4.17;;;24.50;1.00;;;;;;5073639;28;20520;-61
2021/08/11 09:20:44;;;;;;;4.90;4.40;;;24.70;1.00;;;;;;5073353;28;20441;-61
2021/08/11 09:23:11;;;;;;;4.67;4.27;;;24.70;1.00;;;;;;5073773;28;20461;-59
2021/08/11 09:25:56;;;;;;;5.10;4.70;;;24.70;1.00;;;;;;5073855;28;20441;-60
2021/08/11 09:28:21;;;;;;;7.00;4.47;;;24.70;1.00;;;;;;5073674;28;20551;-60
2021/08/11 09:30:47;;;;;;;4.40;4.10;;;24.80;1.00;;;;;;5079873;28;20850;-61
2021/08/11 09:33:12;;;;;;;3.97;3.67;;;25.30;1.00;;;;;;5073624;28;20190;-61
2021/08/11 09:35:38;;;;;;;4.10;3.80;;;25.40;1.00;;;;;;5073512;28;20187;-61
2021/08/11 09:38:11;;;;;;;4.27;3.87;;;25.00;1.00;;;;;;5073575;28;20171;-60
2021/08/11 09:40:39;;;;;;;4.70;4.30;;;24.50;1.00;;;;;;5073495;28;20438;-60
2021/08/11 09:43:16;;;;;;;4.97;4.07;;;24.30;1.00;;;;;;5073425;28;20443;-61
2021/08/11 09:45:56;;;;;;;4.23;3.77;;;24.10;1.00;;;;;;5077384;28;20846;-60
2021/08/11 09:48:24;;;;;;;4.63;3.87;;;24.20;1.00;;;;;;5079832;28;21083;-59
2021/08/11 09:50:55;;;;;;;4.30;4.00;;;24.30;1.00;;;;;;5073027;28;20433;-60
2021/08/11 09:53:25;;;;;;;4.10;3.70;;;24.70;1.00;;;;;;5082729;28;20503;-60
2021/08/11 09:56:05;;;;;;;4.60;4.20;;;25.30;1.00;;;;;;5074976;28;20520;-60
2021/08/11 09:58:33;;;;;;;4.40;3.97;;;25.30;1.00;;;;;;5082911;28;20479;-60
2021/08/11 10:00:59;;;;;;;4.27;3.87;;;25.00;1.00;;;;;;5091052;28;20467;-60
2021/08/11 10:03:25;;;;;;;4.53;4.13;;;25.00;1.00;;;;;;5093155;28;20436;-61
2021/08/11 10:05:52;;;;;;;4.47;4.03;;;24.70;1.00;;;;;;5091662;28;20967;-61
2021/08/11 10:08:28;;;;;;;6.60;3.90;;;24.90;1.00;;;;;;5092768;28;20695;-60
2021/08/11 10:10:54;;;;;;;5.53;4.50;;;24.60;1.00;;;;;;5092880;28;20447;-62
2021/08/11 10:13:24;;;;;;;4.80;4.40;;;24.70;1.00;;;;;;5092340;28;20437;-60
2021/08/11 10:15:50;;;;;;;4.40;4.00;;;24.70;1.00;;;;;;5090547;28;20219;-60
2021/08/11 10:18:26;;;;;;;4.60;4.20;;;24.90;1.00;;;;;;5092294;28;20428;-60
2021/08/11 10:20:56;;;;;;;4.47;4.07;;;25.30;1.00;;;;;;5092469;28;20445;-60
2021/08/11 10:23:22;;;;;;;4.90;4.40;;;25.20;1.00;;;;;;5080930;28;20452;-60
2021/08/11 10:25:48;;;;;;;5.20;4.70;;;24.80;1.00;;;;;;5073604;28;21026;-59
2021/08/11 10:28:18;;;;;;;5.10;4.70;;;24.50;1.00;;;;;;5074678;28;20976;-60
2021/08/11 10:30:44;;;;;;;5.30;4.90;;;24.30;1.00;;;;;;5072657;28;20473;-60
2021/08/11 10:33:10;;;;;;;4.53;4.13;;;24.10;1.00;;;;;;5072389;28;20472;-60
2021/08/11 10:35:38;;;;;;;5.90;5.40;;;24.10;1.00;;;;;;5072409;28;20256;-60
2021/08/11 10:38:05;;;;;;;5.60;5.00;;;24.30;1.00;;;;;;5072244;28;20810;-60
2021/08/11 10:40:31;;;;;;;5.33;4.90;;;24.30;1.00;;;;;;5090919;28;20437;-60
2021/08/11 10:42:58;;;;;;;5.10;4.70;;;24.30;1.00;;;;;;5092453;28;20459;-59
2021/08/11 10:45:25;;;;;;;6.23;5.73;;;25.20;1.00;;;;;;5092396;28;20459;-59
2021/08/11 10:47:52;;;;;;;6.80;6.20;;;25.60;1.00;;;;;;5092447;28;20786;-60
2021/08/11 10:50:18;;;;;;;6.87;6.37;;;25.40;1.00;;;;;;5092139;28;20468;-61
2021/08/11 10:52:44;;;;;;;6.37;5.87;;;25.10;1.00;;;;;;5092011;28;20439;-59
2021/08/11 10:55:10;;;;;;;6.00;5.60;;;25.00;1.00;;;;;;5090356;28;20520;-60
2021/08/11 10:57:36;;;;;;;6.67;6.17;;;25.10;1.00;;;;;;5071673;28;20517;-60
2021/08/11 11:00:07;;;;;;;6.50;6.10;;;25.30;1.00;;;;;;5080013;28;20407;-59
2021/08/11 11:02:39;;;;;;;5.27;4.93;;;25.60;1.00;;;;;;5091866;28;20192;-61
2021/08/11 11:05:06;;;;;;;7.63;7.03;;;25.80;1.00;;;;;;5092000;28;21000;-60
2021/08/11 11:07:32;;;;;;;6.70;6.10;;;25.60;1.00;;;;;;5079909;28;20461;-60
2021/08/11 11:10:27;;;;;;;6.50;5.90;;;25.40;1.00;;;;;;5071894;28;20428;-61
2021/08/11 11:12:53;;;;;;;6.87;6.30;;;25.60;1.00;;;;;;5072326;28;20183;-61
2021/08/11 11:15:50;;;;;;;6.87;6.33;;;24.70;1.00;;;;;;5071165;28;20992;-60
2021/08/11 11:18:20;;;;;;;6.27;5.80;;;25.50;1.00;;;;;;5072783;28;20195;-60
2021/08/11 11:20:47;;;;;;;6.50;6.00;;;26.00;1.00;;;;;;5071419;28;20437;-60
2021/08/11 11:23:32;;;;;;;5.50;5.00;;;26.20;1.00;;;;;;5070979;28;20426;-61
2021/08/11 11:26:05;;;;;;;5.60;5.10;;;26.20;1.00;;;;;;5086479;28;20440;-60
2021/08/11 11:28:58;;;;;;;6.23;5.83;;;26.60;1.00;;;;;;5090844;28;20801;-61
2021/08/11 11:31:34;;;;;;;5.70;5.30;;;26.70;1.00;;;;;;5071781;28;20931;-61
2021/08/11 11:34:21;;;;;;;6.50;6.10;;;26.60;1.00;;;;;;5071100;28;20425;-61
2021/08/11 11:36:55;;;;;;;6.60;6.10;;;26.30;1.00;;;;;;5071275;28;20433;-60
2021/08/11 11:39:22;;;;;;;7.30;6.60;;;26.40;1.00;;;;;;5071102;28;20777;-62
2021/08/11 11:42:19;;;;;;;8.60;6.43;;;26.70;1.00;;;;;;5070768;28;20433;-60
2021/08/11 11:44:57;;;;;;;8.90;6.40;;;26.60;1.00;;;;;;5080821;28;20425;-60
2021/08/11 11:47:56;;;;;;;6.17;5.77;;;26.80;1.00;;;;;;5070889;28;20502;-60
2021/08/11 11:50:32;;;;;;;6.20;5.80;;;26.30;1.00;;;;;;5070616;28;20473;-61
2021/08/11 11:53:03;;;;;;;7.97;7.27;;;25.90;1.00;;;;;;5090399;28;20428;-60
2021/08/11 11:55:31;;;;;;;6.80;6.20;;;25.80;1.00;;;;;;5080231;28;20477;-61
2021/08/11 11:58:02;;;;;;;7.07;6.57;;;26.00;1.00;;;;;;5070621;28;20446;-61
2021/08/11 12:00:29;;;;;;;7.37;6.83;;;26.30;1.00;;;;;;5071026;28;20419;-61
2021/08/11 12:02:55;;;;;;;6.80;6.40;;;26.20;1.00;;;;;;5070399;28;20437;-60
2021/08/11 12:05:22;;;;;;;7.30;6.80;;;26.00;1.00;;;;;;5077540;28;20839;-61
2021/08/11 12:07:47;;;;;;;7.20;6.60;;;26.00;1.00;;;;;;5090917;28;20837;-62
2021/08/11 12:10:24;;;;;;;6.47;6.07;;;26.40;1.00;;;;;;5090617;28;20419;-60
2021/08/11 12:12:59;;;;;;;6.60;6.10;;;26.70;1.00;;;;;;5089321;28;20178;-60
2021/08/11 12:15:30;;;;;;;6.43;5.93;;;26.80;1.00;;;;;;5075698;28;20493;-60
2021/08/11 12:17:57;;;;;;;7.23;6.63;;;26.80;1.00;;;;;;5070712;28;20458;-59
2021/08/11 12:20:31;;;;;;;6.30;5.80;;;26.70;1.00;;;;;;5070787;28;20444;-62
2021/08/11 12:22:59;;;;;;;7.50;6.90;;;26.70;1.00;;;;;;5070788;28;20430;-60
2021/08/11 12:25:26;;;;;;;7.37;6.73;;;26.70;1.00;;;;;;5090246;28;20418;-61
2021/08/11 12:28:12;;;;;;;7.17;6.67;;;26.80;1.00;;;;;;5090652;28;20460;-60
2021/08/11 12:30:41;;;;;;;6.77;6.23;;;27.30;1.00;;;;;;5090426;28;20436;-61
2021/08/11 12:33:07;;;;;;;7.10;6.57;;;27.50;1.00;;;;;;5081812;28;20437;-62
2021/08/11 12:35:39;;;;;;;6.37;5.77;;;27.60;1.00;;;;;;5084465;28;20408;-60
2021/08/11 12:38:04;;;;;;;6.00;5.60;;;27.50;1.00;;;;;;5074664;28;20929;-61
2021/08/11 12:40:39;;;;;;;7.20;6.60;;;27.30;1.00;;;;;;5074544;28;20448;-61
2021/08/11 12:43:06;;;;;;;7.57;6.87;;;27.10;1.00;;;;;;5073172;28;20226;-60
2021/08/11 12:45:46;;;;;;;7.03;6.40;;;26.90;1.00;;;;;;5074624;28;20445;-61
2021/08/11 12:48:41;;;;;;;7.27;6.77;;;26.70;1.00;;;;;;5074251;28;20465;-59
2021/08/11 12:51:24;;;;;;;7.20;6.60;;;27.10;1.00;;;;;;5078608;28;20462;-61
2021/08/11 12:54:04;;;;;;;7.40;6.90;;;27.10;1.00;;;;;;5094549;28;20444;-60
2021/08/11 12:56:30;;;;;;;7.50;6.90;;;27.10;1.00;;;;;;5094475;28;20439;-60
2021/08/11 12:59:00;;;;;;;6.83;6.43;;;27.10;1.00;;;;;;5094726;28;20450;-60
2021/08/11 13:01:34;;;;;;;7.07;6.57;;;27.20;1.00;;;;;;5094481;28;20490;-60
2021/08/11 13:04:01;;;;;;;7.50;6.90;;;26.90;1.00;;;;;;5077262;28;20418;-61